Mc Henry, Kentucky
Current Conditions -  °F | °C
As of 8:35 PM on Wednesday 22 Oct 2014 (Local Time) from K2I0 Reporting Station
Clear Clear  
Wind Chill: 48°   Ceiling: Unl
Heat Index: 48°   Visibility: 10mi
Dew Point: 42°   Wind: 0mph
Humidity: 78%   Direction: NA
Pressure: 30.23"   Gusts: NA
Location:  37.3808°N, 86.9237°W
Report Text: K2I0 230135Z AUTO 00000KT 10SM CLR 09/05 A3023 RMK AO2 T00900054
Loading
Personal Weather Stations






























Interactive Weather Map
Tropical Storm Tracking
New forecast layout! Learn more

10-Day Weather Forecast

Advertisements
Track Severe Weather on mobile